createdAt,value
2022-08-07T00:02:40.649Z,81.01
2022-08-07T00:05:05.561Z,81.75
2022-08-07T00:07:40.552Z,81.87
2022-08-07T00:10:27.249Z,82.14
2022-08-07T00:13:02.038Z,82.14
2022-08-07T00:15:36.029Z,83.49
2022-08-07T00:18:06.330Z,84.38
2022-08-07T00:20:35.520Z,83.86
2022-08-07T00:23:03.643Z,84.54
2022-08-07T00:25:41.425Z,85.13
2022-08-07T00:28:10.650Z,85.64
2022-08-07T00:30:38.666Z,85.39
2022-08-07T00:33:08.491Z,85.06
2022-08-07T00:35:36.749Z,85.28
2022-08-07T00:38:04.692Z,84.34
2022-08-07T00:40:39.775Z,84.60
2022-08-07T00:43:58.603Z,84.60
2022-08-07T00:46:04.671Z,85.01
2022-08-07T00:48:35.709Z,83.68
2022-08-07T00:51:09.867Z,84.13
2022-08-07T00:53:38.888Z,83.90
2022-08-07T00:56:21.120Z,84.07
2022-08-07T00:58:51.740Z,83.79
2022-08-07T01:01:19.889Z,84.58
2022-08-07T01:03:55.675Z,85.15
2022-08-07T01:06:28.571Z,85.05
2022-08-07T01:09:01.114Z,84.51
2022-08-07T01:12:10.299Z,85.09
2022-08-07T01:14:32.709Z,84.86
2022-08-07T01:17:07.203Z,84.71
2022-08-07T01:19:35.159Z,84.97
2022-08-07T01:22:08.667Z,84.82
2022-08-07T01:24:39.562Z,84.68
2022-08-07T01:27:19.477Z,85.12
2022-08-07T01:29:47.542Z,84.84
2022-08-07T01:32:18.593Z,84.88
2022-08-07T01:34:47.442Z,85.15
2022-08-07T01:37:18.908Z,85.06
2022-08-07T01:39:49.939Z,85.29
2022-08-07T01:42:39.565Z,84.39
2022-08-07T01:45:10.094Z,84.89
2022-08-07T01:48:19.897Z,85.06
2022-08-07T01:50:36.483Z,85.25
2022-08-07T01:53:08.898Z,84.29
2022-08-07T01:55:43.778Z,84.25
2022-08-07T01:58:28.953Z,83.73
2022-08-07T02:01:09.476Z,83.31
2022-08-07T02:03:48.940Z,83.09
2022-08-07T02:06:31.275Z,83.15
2022-08-07T02:09:01.149Z,83.24
2022-08-07T02:12:02.941Z,83.35
2022-08-07T02:14:40.452Z,83.59
2022-08-07T02:17:12.501Z,83.58
2022-08-07T02:20:06.880Z,83.54
2022-08-07T02:22:38.292Z,83.26
2022-08-07T02:25:13.795Z,82.65
2022-08-07T02:27:52.098Z,82.53
2022-08-07T02:30:23.318Z,82.16
2022-08-07T02:33:07.249Z,82.18
2022-08-07T02:36:28.441Z,82.09
2022-08-07T02:38:32.751Z,81.59
2022-08-07T02:41:03.847Z,81.77
2022-08-07T02:43:31.957Z,81.47
2022-08-07T02:46:05.673Z,81.41
2022-08-07T02:48:34.391Z,81.34
2022-08-07T02:51:14.421Z,81.22
2022-08-07T02:53:58.260Z,81.43
2022-08-07T02:56:31.393Z,81.64
2022-08-07T02:58:59.414Z,81.64
2022-08-07T03:01:36.142Z,81.88
2022-08-07T03:04:07.562Z,81.80
2022-08-07T03:06:46.009Z,81.69
2022-08-07T03:09:42.164Z,81.99
2022-08-07T03:12:11.593Z,82.04
2022-08-07T03:14:52.241Z,82.58
2022-08-07T03:17:22.227Z,82.67
2022-08-07T03:19:57.995Z,82.99
2022-08-07T03:22:29.573Z,83.83
2022-08-07T03:25:00.935Z,83.35
2022-08-07T03:27:59.767Z,83.40
2022-08-07T03:30:19.825Z,83.55
2022-08-07T03:32:58.564Z,83.44
2022-08-07T03:35:38.047Z,84.29
2022-08-07T03:38:21.048Z,84.23
2022-08-07T03:41:01.528Z,84.20
2022-08-07T03:43:33.315Z,83.67
2022-08-07T03:46:10.517Z,83.46
2022-08-07T03:49:02.421Z,83.76
2022-08-07T03:51:47.882Z,83.80
2022-08-07T03:54:35.980Z,84.27
2022-08-07T03:57:10.023Z,84.05
2022-08-07T04:00:02.577Z,84.00
2022-08-07T04:02:34.181Z,83.76
2022-08-07T04:05:09.116Z,83.82
2022-08-07T04:07:42.829Z,84.13
2022-08-07T04:10:19.017Z,84.04
2022-08-07T04:12:50.644Z,84.23
2022-08-07T04:15:18.462Z,84.60
2022-08-07T04:18:58.579Z,84.60
2022-08-07T04:20:35.268Z,84.50
2022-08-07T04:23:06.623Z,84.49
2022-08-07T04:25:40.960Z,84.64
2022-08-07T04:28:15.855Z,84.51
2022-08-07T04:30:57.309Z,85.07
2022-08-07T04:33:26.892Z,84.45
2022-08-07T04:35:57.946Z,84.85
2022-08-07T04:38:26.319Z,84.74
2022-08-07T04:40:56.646Z,84.93
2022-08-07T04:44:09.676Z,85.04
2022-08-07T04:46:35.908Z,85.55
2022-08-07T04:49:37.838Z,85.58
2022-08-07T04:52:12.440Z,85.84
2022-08-07T04:55:15.013Z,85.26
2022-08-07T04:58:23.958Z,85.32
2022-08-07T05:00:47.266Z,85.17
2022-08-07T05:04:06.910Z,84.77
2022-08-07T05:06:51.657Z,85.13
2022-08-07T05:09:46.017Z,85.17
2022-08-07T05:12:26.942Z,84.72
2022-08-07T05:15:03.334Z,84.48
2022-08-07T05:18:00.648Z,84.49
2022-08-07T05:20:25.868Z,84.62
2022-08-07T05:22:55.753Z,84.54
2022-08-07T05:25:54.447Z,84.40
2022-08-07T05:28:22.632Z,84.06
2022-08-07T05:30:52.272Z,84.26
2022-08-07T05:33:20.789Z,84.19
2022-08-07T05:35:52.474Z,84.04
2022-08-07T05:38:59.412Z,83.77
2022-08-07T05:41:14.365Z,83.74
2022-08-07T05:44:01.128Z,83.39
2022-08-07T05:46:32.271Z,83.51
2022-08-07T05:49:00.036Z,83.12
2022-08-07T05:51:31.686Z,82.76
2022-08-07T05:54:09.726Z,82.73
2022-08-07T05:56:51.437Z,82.35
2022-08-07T05:59:20.791Z,82.60
2022-08-07T06:01:48.783Z,82.69
2022-08-07T06:04:19.462Z,82.70
2022-08-07T06:06:47.843Z,82.19
2022-08-07T06:10:03.721Z,82.21
2022-08-07T06:12:12.421Z,82.38
2022-08-07T06:14:49.649Z,81.82
2022-08-07T06:17:18.384Z,81.18
2022-08-07T06:19:57.880Z,81.29
2022-08-07T06:22:38.522Z,80.91
2022-08-07T06:25:10.010Z,80.29
2022-08-07T06:28:00.412Z,80.32
2022-08-07T06:30:35.617Z,79.88
2022-08-07T06:33:15.612Z,79.48
2022-08-07T06:36:13.004Z,79.58
2022-08-07T06:38:36.975Z,78.79
2022-08-07T06:41:13.022Z,79.17
2022-08-07T06:43:46.162Z,78.04
2022-08-07T06:46:20.382Z,78.39
2022-08-07T06:49:04.432Z,78.08
2022-08-07T06:51:33.695Z,77.41
2022-08-07T06:55:29.468Z,77.03
2022-08-07T06:56:56.205Z,75.85
2022-08-07T07:00:13.060Z,75.66
2022-08-07T07:02:48.963Z,77.22
2022-08-07T07:05:13.040Z,75.78
2022-08-07T07:07:59.271Z,75.52
2022-08-07T07:10:34.421Z,75.02
2022-08-07T07:13:14.383Z,74.35
2022-08-07T07:15:56.510Z,73.92
2022-08-07T07:18:47.736Z,73.12
2022-08-07T07:21:27.177Z,73.54
2022-08-07T07:24:12.652Z,73.46
2022-08-07T07:26:40.795Z,72.92
2022-08-07T07:29:57.196Z,72.00
2022-08-07T07:32:09.781Z,71.97
2022-08-07T07:34:40.389Z,72.57
2022-08-07T07:37:21.635Z,71.72
2022-08-07T07:40:02.970Z,71.76
2022-08-07T07:42:38.239Z,71.41
2022-08-07T07:45:07.269Z,72.62
2022-08-07T07:47:51.935Z,72.05
2022-08-07T07:50:34.298Z,71.67
2022-08-07T07:53:20.084Z,71.84
2022-08-07T07:55:57.840Z,70.77
2022-08-07T07:58:30.927Z,71.39
2022-08-07T08:02:01.998Z,70.08
2022-08-07T08:04:10.640Z,69.59
2022-08-07T08:06:48.132Z,70.29
2022-08-07T08:09:23.342Z,70.44
2022-08-07T08:12:02.102Z,70.29
2022-08-07T08:14:36.713Z,70.28
2022-08-07T08:17:55.361Z,70.07
2022-08-07T08:20:19.579Z,69.85
2022-08-07T08:23:15.770Z,70.22
2022-08-07T08:26:06.701Z,70.67
2022-08-07T08:28:44.821Z,70.60
2022-08-07T08:31:22.933Z,70.80
2022-08-07T08:34:03.536Z,71.10
2022-08-07T08:36:32.834Z,71.02
2022-08-07T08:39:07.699Z,71.15
2022-08-07T08:41:58.367Z,70.20
2022-08-07T08:44:44.556Z,69.47
2022-08-07T08:47:47.356Z,69.10
2022-08-07T08:50:39.141Z,69.17
2022-08-07T08:53:16.583Z,69.21
2022-08-07T08:55:58.915Z,69.56
2022-08-07T08:58:43.245Z,68.66
2022-08-07T09:01:21.714Z,67.85
2022-08-07T09:04:04.094Z,68.52
2022-08-07T09:07:01.862Z,67.90
2022-08-07T09:10:03.504Z,68.75
2022-08-07T09:12:37.266Z,68.45
2022-08-07T09:16:24.255Z,69.23
2022-08-07T09:18:53.186Z,67.95
2022-08-07T09:22:10.354Z,68.46
2022-08-07T09:24:56.161Z,68.81
2022-08-07T09:28:00.998Z,68.70
2022-08-07T09:30:57.136Z,66.98
2022-08-07T09:33:56.720Z,67.18
2022-08-07T09:36:49.986Z,66.91
2022-08-07T09:39:56.350Z,67.37
2022-08-07T09:42:41.230Z,67.49
2022-08-07T09:47:25.461Z,67.30
2022-08-07T09:50:04.207Z,66.54
2022-08-07T09:52:34.963Z,66.60
2022-08-07T09:55:28.935Z,66.79
2022-08-07T09:58:16.023Z,67.26
2022-08-07T10:00:55.881Z,67.63
2022-08-07T10:04:03.782Z,67.64
2022-08-07T10:06:49.224Z,66.76
2022-08-07T10:10:01.062Z,68.23
2022-08-07T10:12:54.777Z,68.50
2022-08-07T10:15:51.536Z,66.72
2022-08-07T10:18:39.078Z,66.52
2022-08-07T10:21:50.489Z,65.05
2022-08-07T10:24:33.383Z,67.79
2022-08-07T10:27:24.124Z,66.25
2022-08-07T10:30:12.143Z,66.76
2022-08-07T10:33:01.743Z,63.53
2022-08-07T10:36:11.033Z,64.37
2022-08-07T10:39:06.624Z,63.90
2022-08-07T10:41:51.230Z,62.53
2022-08-07T10:44:38.736Z,62.64
2022-08-07T10:47:27.052Z,63.36
2022-08-07T10:50:26.073Z,62.65
2022-08-07T10:53:08.351Z,60.03
2022-08-07T10:55:53.312Z,60.19
2022-08-07T10:58:40.598Z,61.91
2022-08-07T11:01:51.662Z,59.86
2022-08-07T11:05:10.575Z,61.62
2022-08-07T11:07:59.236Z,58.53
2022-08-07T11:10:40.859Z,59.98
2022-08-07T11:14:42.345Z,57.77
2022-08-07T11:16:32.925Z,58.72
2022-08-07T11:19:44.174Z,56.32
2022-08-07T11:22:34.032Z,56.94
2022-08-07T11:25:42.203Z,55.67
2022-08-07T11:28:26.935Z,56.82
2022-08-07T11:31:23.855Z,55.58
2022-08-07T11:34:05.156Z,56.70
2022-08-07T11:37:15.591Z,55.81
2022-08-07T11:40:19.202Z,56.28
2022-08-07T11:43:41.274Z,56.10
2022-08-07T11:46:42.089Z,56.80
2022-08-07T11:50:11.428Z,55.99
2022-08-07T11:52:49.229Z,56.54
2022-08-07T11:56:26.048Z,56.46
2022-08-07T12:00:08.844Z,54.51
2022-08-07T12:02:20.782Z,54.82
2022-08-07T12:05:28.860Z,55.54
2022-08-07T12:08:34.664Z,54.88
2022-08-07T12:11:21.553Z,55.11
2022-08-07T12:13:54.398Z,56.27
2022-08-07T12:16:31.015Z,56.27
2022-08-07T12:19:23.608Z,56.14
2022-08-07T12:22:38.819Z,56.33
2022-08-07T12:26:21.687Z,57.13
2022-08-07T12:28:30.946Z,56.44
2022-08-07T12:31:09.376Z,56.44
2022-08-07T12:34:00.652Z,56.79
2022-08-07T12:36:33.698Z,55.58
2022-08-07T12:39:41.168Z,54.88
2022-08-07T12:42:13.161Z,54.67
2022-08-07T12:44:47.632Z,55.17
2022-08-07T12:47:58.239Z,54.88
2022-08-07T12:50:51.817Z,53.83
2022-08-07T12:54:23.887Z,54.89
2022-08-07T12:56:43.427Z,55.71
2022-08-07T12:59:33.219Z,55.55
2022-08-07T13:02:16.600Z,55.73
2022-08-07T13:06:02.071Z,56.26
2022-08-07T13:08:18.834Z,56.23
2022-08-07T13:11:00.970Z,57.03
2022-08-07T13:13:48.735Z,56.55
2022-08-07T13:17:05.205Z,56.07
2022-08-07T13:20:14.495Z,57.04
2022-08-07T13:22:57.044Z,56.31
2022-08-07T13:25:50.797Z,55.86
2022-08-07T13:28:56.606Z,56.73
2022-08-07T13:31:46.253Z,56.72
2022-08-07T13:34:53.283Z,56.70
2022-08-07T13:37:33.645Z,57.75
2022-08-07T13:40:36.026Z,58.57
2022-08-07T13:43:16.552Z,56.79
2022-08-07T13:46:12.830Z,57.04
2022-08-07T13:48:38.895Z,57.14
2022-08-07T13:51:27.721Z,57.55
2022-08-07T13:54:07.079Z,57.77
2022-08-07T13:56:41.345Z,57.49
2022-08-07T13:59:27.821Z,58.06
2022-08-07T14:02:39.501Z,57.69
2022-08-07T14:05:19.661Z,57.13
2022-08-07T14:07:59.970Z,56.98
2022-08-07T14:10:41.976Z,56.98
2022-08-07T14:13:19.815Z,56.43
2022-08-07T14:15:58.925Z,57.52
2022-08-07T14:18:37.270Z,56.65
2022-08-07T14:21:11.639Z,57.51
2022-08-07T14:24:06.613Z,57.24
2022-08-07T14:26:50.591Z,56.97
2022-08-07T14:30:05.269Z,58.29
2022-08-07T14:32:37.590Z,56.76
2022-08-07T14:35:07.090Z,56.82
2022-08-07T14:38:03.243Z,57.23
2022-08-07T14:40:40.277Z,56.75
2022-08-07T14:43:59.200Z,57.56
2022-08-07T14:46:04.264Z,57.14
2022-08-07T14:48:34.006Z,56.81
2022-08-07T14:51:06.737Z,56.54
2022-08-07T14:54:05.948Z,57.38
2022-08-07T14:56:41.481Z,56.32
2022-08-07T15:00:06.220Z,55.12
2022-08-07T15:05:04.919Z,57.29
2022-08-07T15:07:54.742Z,57.24
2022-08-07T15:10:30.056Z,57.61
2022-08-07T15:13:01.211Z,57.82
2022-08-07T15:15:53.403Z,57.84
2022-08-07T15:18:40.106Z,57.60
2022-08-07T15:21:44.288Z,57.96
2022-08-07T15:25:15.013Z,57.06
2022-08-07T15:27:16.623Z,57.31
2022-08-07T15:30:08.530Z,57.64
2022-08-07T15:36:02.636Z,55.82
2022-08-07T15:38:51.268Z,56.88
2022-08-07T15:41:24.446Z,56.63
2022-08-07T15:44:16.186Z,57.76
2022-08-07T15:47:16.819Z,57.46
2022-08-07T15:50:04.036Z,57.35
2022-08-07T15:52:52.456Z,56.22
2022-08-07T15:55:53.545Z,56.62
2022-08-07T15:58:21.053Z,56.29
2022-08-07T16:00:52.079Z,56.19
2022-08-07T16:03:46.349Z,56.54
2022-08-07T16:06:18.324Z,56.62
2022-08-07T16:08:52.950Z,57.22
2022-08-07T16:11:41.686Z,56.70
2022-08-07T16:14:49.511Z,55.52
2022-08-07T16:18:02.552Z,55.77
2022-08-07T16:21:44.106Z,56.58
2022-08-07T16:24:35.106Z,56.88
2022-08-07T16:27:20.971Z,56.47
2022-08-07T16:30:11.802Z,55.93
2022-08-07T16:34:02.860Z,56.38
2022-08-07T16:36:20.791Z,56.37
2022-08-07T16:39:10.224Z,56.56
2022-08-07T16:42:27.691Z,56.58
2022-08-07T16:46:10.911Z,56.80
2022-08-07T16:49:04.026Z,56.01
2022-08-07T16:51:57.527Z,56.62
2022-08-07T16:54:54.883Z,55.84
2022-08-07T16:58:02.984Z,56.69
2022-08-07T17:00:48.737Z,56.72
2022-08-07T17:03:59.358Z,56.86
2022-08-07T17:07:02.904Z,57.02
2022-08-07T17:10:08.344Z,56.54
2022-08-07T17:12:53.035Z,56.92
2022-08-07T17:15:44.734Z,56.95
2022-08-07T17:18:40.072Z,57.14
2022-08-07T17:21:22.804Z,56.02
2022-08-07T17:24:14.360Z,56.37
2022-08-07T17:27:32.659Z,56.40
2022-08-07T17:30:15.974Z,56.13
2022-08-07T17:34:09.854Z,55.79
2022-08-07T17:36:28.071Z,55.72
2022-08-07T17:39:15.467Z,55.04
2022-08-07T17:42:04.479Z,55.47
2022-08-07T17:44:50.263Z,55.35
2022-08-07T17:47:38.280Z,56.68
2022-08-07T17:50:30.438Z,56.59
2022-08-07T17:53:55.720Z,56.28
2022-08-07T17:56:28.673Z,57.00
2022-08-07T17:59:08.991Z,56.88
2022-08-07T18:01:52.246Z,58.28
2022-08-07T18:04:31.072Z,57.94
2022-08-07T18:07:20.924Z,58.54
2022-08-07T18:10:32.181Z,59.50
2022-08-07T18:13:15.696Z,59.72
2022-08-07T18:16:32.822Z,59.62
2022-08-07T18:21:04.487Z,60.05
2022-08-07T18:22:15.074Z,60.18
2022-08-07T18:24:53.920Z,60.01
2022-08-07T18:27:59.249Z,61.14
2022-08-07T18:31:12.293Z,60.78
2022-08-07T18:34:35.893Z,61.68
2022-08-07T18:38:56.909Z,64.42
2022-08-07T18:40:42.292Z,62.74
2022-08-07T18:43:42.728Z,61.66
2022-08-07T18:47:05.476Z,61.52
2022-08-07T18:50:32.508Z,63.39
2022-08-07T18:52:53.977Z,63.48
2022-08-07T18:55:41.946Z,62.95
2022-08-07T18:59:01.958Z,62.94
2022-08-07T19:02:17.546Z,62.77
2022-08-07T19:04:57.405Z,62.90
2022-08-07T19:07:57.247Z,64.39
2022-08-07T19:10:41.123Z,66.63
2022-08-07T19:13:41.533Z,68.73
2022-08-07T19:16:43.200Z,66.75
2022-08-07T19:19:20.317Z,66.93
2022-08-07T19:22:31.052Z,66.77
2022-08-07T19:25:05.561Z,67.82
2022-08-07T19:28:56.539Z,68.06
2022-08-07T19:30:56.577Z,69.07
2022-08-07T19:33:17.241Z,71.29
2022-08-07T19:35:57.845Z,70.77
2022-08-07T19:38:30.496Z,71.04
2022-08-07T19:41:02.227Z,72.11
2022-08-07T19:43:49.562Z,72.33
2022-08-07T19:46:26.495Z,72.23
2022-08-07T19:49:07.611Z,73.18
2022-08-07T19:51:51.416Z,75.52
2022-08-07T19:54:33.036Z,74.51
2022-08-07T19:58:00.787Z,74.61
2022-08-07T20:00:10.373Z,75.20
2022-08-07T20:02:51.530Z,75.83
2022-08-07T20:05:29.834Z,77.08
2022-08-07T20:08:02.557Z,77.16
2022-08-07T20:10:37.205Z,77.72
2022-08-07T20:13:27.156Z,77.58
2022-08-07T20:16:15.781Z,77.31
2022-08-07T20:19:10.656Z,78.58
2022-08-07T20:21:48.353Z,78.58
2022-08-07T20:24:42.280Z,79.05
2022-08-07T20:27:45.863Z,79.64
2022-08-07T20:30:11.742Z,78.64
2022-08-07T20:32:44.847Z,79.14
2022-08-07T20:35:26.574Z,80.91
2022-08-07T20:38:00.832Z,79.57
2022-08-07T20:40:34.918Z,80.01
2022-08-07T20:43:09.713Z,80.26
2022-08-07T20:46:29.107Z,80.50
2022-08-07T20:48:37.366Z,80.17
2022-08-07T20:51:09.571Z,80.54
2022-08-07T20:54:03.880Z,80.80
2022-08-07T20:56:46.202Z,81.23
2022-08-07T21:00:04.990Z,82.14
2022-08-07T21:02:38.248Z,81.44
2022-08-07T21:05:16.305Z,84.12
2022-08-07T21:07:52.099Z,82.30
2022-08-07T21:10:36.885Z,84.01
2022-08-07T21:13:13.791Z,81.90
2022-08-07T21:15:58.468Z,81.91
2022-08-07T21:18:34.202Z,82.53
2022-08-07T21:21:05.523Z,81.81
2022-08-07T21:24:03.063Z,82.80
2022-08-07T21:26:42.864Z,83.65
2022-08-07T21:29:23.067Z,83.37
2022-08-07T21:32:46.920Z,84.95
2022-08-07T21:35:34.528Z,85.93
2022-08-07T21:38:35.602Z,84.90
2022-08-07T21:41:11.422Z,85.61
2022-08-07T21:43:56.112Z,85.23
2022-08-07T21:46:50.349Z,85.73
2022-08-07T21:50:02.807Z,86.49
2022-08-07T21:52:55.938Z,85.00
2022-08-07T21:55:29.793Z,85.20
2022-08-07T21:58:32.113Z,84.86
2022-08-07T22:01:13.726Z,85.62
2022-08-07T22:03:49.407Z,85.56
2022-08-07T22:06:30.502Z,85.67
2022-08-07T22:09:14.019Z,84.99
2022-08-07T22:12:05.376Z,87.24
2022-08-07T22:14:38.863Z,86.46
2022-08-07T22:17:27.646Z,86.92
2022-08-07T22:20:28.667Z,86.69
2022-08-07T22:23:00.659Z,87.45
2022-08-07T22:26:00.951Z,86.97
2022-08-07T22:29:01.716Z,87.54
2022-08-07T22:31:59.408Z,87.81
2022-08-07T22:34:53.485Z,89.00
2022-08-07T22:38:03.064Z,87.58
2022-08-07T22:40:46.150Z,87.46
2022-08-07T22:43:44.608Z,87.38
2022-08-07T22:47:02.972Z,88.73
2022-08-07T22:49:51.848Z,87.59
2022-08-07T22:52:37.021Z,88.33
2022-08-07T22:55:34.686Z,88.55
2022-08-07T22:58:40.081Z,89.96
2022-08-07T23:01:41.913Z,89.23
2022-08-07T23:04:28.259Z,89.12
2022-08-07T23:07:39.798Z,89.15
2022-08-07T23:10:37.515Z,89.78
2022-08-07T23:13:18.358Z,90.46
2022-08-07T23:16:44.681Z,90.48
2022-08-07T23:19:57.934Z,90.23
2022-08-07T23:22:52.573Z,90.54
2022-08-07T23:25:31.642Z,90.41
2022-08-07T23:28:28.516Z,90.67
2022-08-07T23:31:42.739Z,90.40
2022-08-07T23:34:37.442Z,90.17
2022-08-07T23:37:35.506Z,90.22
2022-08-07T23:40:29.846Z,90.98
2022-08-07T23:43:16.485Z,90.40
2022-08-07T23:46:19.911Z,89.98
2022-08-07T23:49:19.283Z,89.80
2022-08-07T23:52:59.710Z,90.67
2022-08-07T23:55:04.810Z,90.88
2022-08-07T23:57:50.499Z,91.43
